createdAt,value
2019-02-28T00:02:14.766Z,6.90
2019-02-28T00:04:46.847Z,6.90
2019-02-28T00:07:23.210Z,6.80
2019-02-28T00:10:13.488Z,6.80
2019-02-28T00:15:44.074Z,6.80
2019-02-28T00:18:18.902Z,6.80
2019-02-28T00:24:14.945Z,6.80
2019-02-28T00:26:48.784Z,6.80
2019-02-28T00:29:26.290Z,6.80
2019-02-28T00:32:04.874Z,6.80
2019-02-28T00:34:39.213Z,6.80
2019-02-28T00:37:17.022Z,6.80
2019-02-28T00:39:50.975Z,6.70
2019-02-28T00:42:27.214Z,6.80
2019-02-28T00:45:02.180Z,6.70
2019-02-28T00:47:38.063Z,6.80
2019-02-28T00:50:10.996Z,6.80
2019-02-28T00:52:41.676Z,6.80
2019-02-28T00:55:15.247Z,6.80
2019-02-28T00:57:46.282Z,6.80
2019-02-28T01:00:37.878Z,6.80
2019-02-28T01:03:12.999Z,6.80
2019-02-28T01:05:46.984Z,6.80
2019-02-28T01:08:39.146Z,6.80
2019-02-28T01:11:13.929Z,6.80
2019-02-28T01:13:47.312Z,6.80
2019-02-28T01:16:28.138Z,6.80
2019-02-28T01:19:03.341Z,6.80
2019-02-28T01:21:57.298Z,6.80
2019-02-28T01:24:36.022Z,6.70
2019-02-28T01:27:17.289Z,6.70
2019-02-28T01:29:54.803Z,6.70
2019-02-28T01:32:35.390Z,6.70
2019-02-28T01:35:21.506Z,6.70
2019-02-28T01:38:02.502Z,6.70
2019-02-28T01:40:37.701Z,6.70
2019-02-28T01:43:11.632Z,6.70
2019-02-28T01:45:44.432Z,6.70
2019-02-28T01:48:26.798Z,6.60
2019-02-28T01:51:12.771Z,6.60
2019-02-28T01:53:55.310Z,6.60
2019-02-28T01:56:30.631Z,6.60
2019-02-28T01:59:11.674Z,6.60
2019-02-28T02:02:06.699Z,6.60
2019-02-28T02:04:43.151Z,6.60
2019-02-28T02:07:26.755Z,6.60
2019-02-28T02:10:09.646Z,6.60
2019-02-28T02:12:45.304Z,6.60
2019-02-28T02:15:24.940Z,6.60
2019-02-28T02:18:02.001Z,6.50
2019-02-28T02:20:48.137Z,6.50
2019-02-28T02:23:23.258Z,6.50
2019-02-28T02:26:03.276Z,6.50
2019-02-28T02:28:40.209Z,6.40
2019-02-28T02:31:13.037Z,6.50
2019-02-28T02:33:51.176Z,6.40
2019-02-28T02:36:21.482Z,6.40
2019-02-28T02:38:56.727Z,6.30
2019-02-28T02:41:33.407Z,6.30
2019-02-28T02:44:12.740Z,6.30
2019-02-28T02:46:47.954Z,6.20
2019-02-28T02:49:26.240Z,6.20
2019-02-28T02:52:15.686Z,6.20
2019-02-28T02:54:52.087Z,6.10
2019-02-28T02:57:32.217Z,6.10
2019-02-28T03:00:13.260Z,6.00
2019-02-28T03:02:47.128Z,6.00
2019-02-28T03:05:22.119Z,6.00
2019-02-28T03:08:07.042Z,5.90
2019-02-28T03:10:47.083Z,5.90
2019-02-28T03:13:21.231Z,5.90
2019-02-28T03:16:00.392Z,5.80
2019-02-28T03:18:37.833Z,5.80
2019-02-28T03:21:15.128Z,5.70
2019-02-28T03:23:44.544Z,5.70
2019-02-28T03:26:41.500Z,5.60
2019-02-28T03:29:12.418Z,5.60
2019-02-28T03:31:56.634Z,5.60
2019-02-28T03:34:21.778Z,5.50
2019-02-28T03:36:56.984Z,5.50
2019-02-28T03:39:35.360Z,5.50
2019-02-28T03:45:09.813Z,5.50
2019-02-28T03:50:55.381Z,5.40
2019-02-28T03:53:27.170Z,5.40
2019-02-28T03:56:05.582Z,5.40
2019-02-28T03:58:44.561Z,5.40
2019-02-28T04:01:17.652Z,5.40
2019-02-28T04:03:58.478Z,5.40
2019-02-28T04:06:30.232Z,5.40
2019-02-28T04:09:07.238Z,5.40
2019-02-28T04:11:41.577Z,5.30
2019-02-28T04:16:59.008Z,5.40
2019-02-28T04:22:27.937Z,5.40
2019-02-28T04:25:06.286Z,5.30
2019-02-28T04:30:43.763Z,5.40
2019-02-28T04:33:29.710Z,5.40
2019-02-28T04:36:03.231Z,5.30
2019-02-28T04:38:39.836Z,5.30
2019-02-28T04:41:10.036Z,5.30
2019-02-28T04:43:46.722Z,5.30
2019-02-28T04:46:28.297Z,5.40
2019-02-28T04:49:11.526Z,5.30
2019-02-28T04:51:44.811Z,5.30
2019-02-28T04:54:27.832Z,5.30
2019-02-28T04:57:09.849Z,5.30
2019-02-28T04:59:54.926Z,5.20
2019-02-28T05:02:26.240Z,5.20
2019-02-28T05:07:53.323Z,5.20
2019-02-28T05:10:32.681Z,5.20
2019-02-28T05:13:07.844Z,5.20
2019-02-28T05:15:41.060Z,5.10
2019-02-28T05:18:17.426Z,5.10
2019-02-28T05:21:00.782Z,5.10
2019-02-28T05:23:39.158Z,5.10
2019-02-28T05:32:21.589Z,5.00
2019-02-28T05:34:58.608Z,5.00
2019-02-28T05:37:30.968Z,4.90
2019-02-28T05:40:06.949Z,4.90
2019-02-28T05:42:36.912Z,4.90
2019-02-28T05:45:11.334Z,4.90
2019-02-28T05:47:47.089Z,4.90
2019-02-28T05:50:25.002Z,4.90
2019-02-28T05:52:58.769Z,4.80
2019-02-28T05:55:33.904Z,4.80
2019-02-28T05:58:17.506Z,4.80
2019-02-28T06:00:44.722Z,4.80
2019-02-28T06:03:17.464Z,4.80
2019-02-28T06:05:49.999Z,4.80
2019-02-28T06:08:26.105Z,4.80
2019-02-28T06:11:00.624Z,4.80
2019-02-28T06:13:31.523Z,4.80
2019-02-28T06:16:04.049Z,4.80
2019-02-28T06:18:37.776Z,4.80
2019-02-28T06:21:11.760Z,4.80
2019-02-28T06:23:42.867Z,4.80
2019-02-28T06:29:29.325Z,4.80
2019-02-28T06:32:02.174Z,4.80
2019-02-28T06:34:33.442Z,4.90
2019-02-28T06:37:10.103Z,4.80
2019-02-28T06:39:41.179Z,4.90
2019-02-28T06:42:11.762Z,4.90
2019-02-28T06:44:46.023Z,4.90
2019-02-28T06:50:12.983Z,4.90
2019-02-28T06:52:41.733Z,4.90
2019-02-28T06:55:13.443Z,4.90
2019-02-28T06:57:47.868Z,4.90
2019-02-28T07:03:12.957Z,5.10
2019-02-28T07:05:49.579Z,5.20
2019-02-28T07:08:24.726Z,5.20
2019-02-28T07:10:56.205Z,5.30
2019-02-28T07:13:27.694Z,5.20
2019-02-28T07:15:59.927Z,5.20
2019-02-28T07:18:31.503Z,5.20
2019-02-28T07:21:07.861Z,5.20
2019-02-28T07:23:37.257Z,5.20
2019-02-28T07:26:10.053Z,5.20
2019-02-28T07:28:39.957Z,5.30
2019-02-28T07:31:12.288Z,5.30
2019-02-28T07:33:44.535Z,5.30
2019-02-28T07:36:23.793Z,5.30
2019-02-28T07:38:57.781Z,5.30
2019-02-28T07:41:28.475Z,5.30
2019-02-28T07:43:59.401Z,5.30
2019-02-28T07:46:29.657Z,5.30
2019-02-28T07:49:01.672Z,5.30
2019-02-28T07:51:32.121Z,5.30
2019-02-28T07:54:02.146Z,5.30
2019-02-28T07:56:32.471Z,5.40
2019-02-28T07:59:05.320Z,5.50
2019-02-28T08:01:35.305Z,5.60
2019-02-28T08:04:05.597Z,5.70
2019-02-28T08:06:36.311Z,5.80
2019-02-28T08:09:09.923Z,5.90
2019-02-28T08:11:42.291Z,6.10
2019-02-28T08:14:13.492Z,6.30
2019-02-28T08:16:43.729Z,6.50
2019-02-28T08:19:14.167Z,6.70
2019-02-28T08:21:47.608Z,7.00
2019-02-28T08:24:18.538Z,7.40
2019-02-28T08:26:50.727Z,7.70
2019-02-28T08:29:19.839Z,8.10
2019-02-28T08:31:50.992Z,8.40
2019-02-28T08:34:23.849Z,8.60
2019-02-28T08:36:55.674Z,8.80
2019-02-28T08:39:26.824Z,8.90
2019-02-28T08:42:02.981Z,9.00
2019-02-28T08:44:31.895Z,9.00
2019-02-28T08:47:02.613Z,8.90
2019-02-28T08:49:32.436Z,8.80
2019-02-28T08:52:02.589Z,8.90
2019-02-28T08:54:34.737Z,8.90
2019-02-28T08:57:06.452Z,9.00
2019-02-28T08:59:37.111Z,9.10
2019-02-28T09:02:09.548Z,9.10
2019-02-28T09:04:41.433Z,9.10
2019-02-28T09:07:20.066Z,9.30
2019-02-28T09:09:51.068Z,9.70
2019-02-28T09:12:33.362Z,10.10
2019-02-28T09:15:03.417Z,10.60
2019-02-28T09:17:33.400Z,11.20
2019-02-28T09:20:07.545Z,11.40
2019-02-28T09:22:38.940Z,11.30
2019-02-28T09:25:22.135Z,11.10
2019-02-28T09:27:56.922Z,10.90
2019-02-28T09:30:38.897Z,10.70
2019-02-28T09:33:09.291Z,10.50
2019-02-28T09:35:45.014Z,10.40
2019-02-28T09:38:14.792Z,10.40
2019-02-28T09:40:45.746Z,10.40
2019-02-28T09:43:18.830Z,10.80
2019-02-28T09:45:52.906Z,11.20
2019-02-28T09:48:26.321Z,11.90
2019-02-28T09:50:59.105Z,12.20
2019-02-28T09:53:31.317Z,12.10
2019-02-28T09:56:08.888Z,12.50
2019-02-28T09:58:35.952Z,12.80
2019-02-28T10:01:16.386Z,13.00
2019-02-28T10:03:46.268Z,13.50
2019-02-28T10:06:16.584Z,13.80
2019-02-28T10:08:50.612Z,14.10
2019-02-28T10:11:24.291Z,14.20
2019-02-28T10:13:58.234Z,14.20
2019-02-28T10:16:30.215Z,13.90
2019-02-28T10:19:01.703Z,13.40
2019-02-28T10:21:36.485Z,13.20
2019-02-28T10:24:08.654Z,13.10
2019-02-28T10:26:38.635Z,13.00
2019-02-28T10:29:13.749Z,13.10
2019-02-28T10:31:44.208Z,13.40
2019-02-28T10:34:14.139Z,13.50
2019-02-28T10:36:49.696Z,13.60
2019-02-28T10:39:27.382Z,13.70
2019-02-28T10:42:01.581Z,13.80
2019-02-28T10:44:32.435Z,13.90
2019-02-28T10:47:05.051Z,13.90
2019-02-28T10:49:35.613Z,13.90
2019-02-28T10:52:08.333Z,13.90
2019-02-28T10:54:38.241Z,14.10
2019-02-28T10:57:09.485Z,14.50
2019-02-28T10:59:41.754Z,15.00
2019-02-28T11:02:13.986Z,15.50
2019-02-28T11:04:48.249Z,15.80
2019-02-28T11:07:18.211Z,15.80
2019-02-28T11:09:48.448Z,15.80
2019-02-28T11:12:23.721Z,16.00
2019-02-28T11:14:55.803Z,16.20
2019-02-28T11:17:30.393Z,16.70
2019-02-28T11:20:03.457Z,17.00
2019-02-28T11:22:46.853Z,17.00
2019-02-28T11:25:22.378Z,17.00
2019-02-28T11:27:57.822Z,17.20
2019-02-28T11:30:31.861Z,17.50
2019-02-28T11:33:04.771Z,17.70
2019-02-28T11:35:35.201Z,17.40
2019-02-28T11:38:07.575Z,17.30
2019-02-28T11:40:43.627Z,17.50
2019-02-28T11:43:15.031Z,17.60
2019-02-28T11:45:49.115Z,17.90
2019-02-28T11:48:29.943Z,18.20
2019-02-28T11:51:01.361Z,18.60
2019-02-28T11:53:32.519Z,18.70
2019-02-28T11:56:06.095Z,18.90
2019-02-28T11:58:42.008Z,19.10
2019-02-28T12:01:16.819Z,19.50
2019-02-28T12:03:54.830Z,19.80
2019-02-28T12:06:28.948Z,19.90
2019-02-28T12:09:04.812Z,19.90
2019-02-28T12:11:40.852Z,19.80
2019-02-28T12:14:13.320Z,19.80
2019-02-28T12:16:45.453Z,19.70
2019-02-28T12:19:36.047Z,19.50
2019-02-28T12:22:12.815Z,19.20
2019-02-28T12:24:48.371Z,18.90
2019-02-28T12:27:21.015Z,18.90
2019-02-28T12:29:53.207Z,18.90
2019-02-28T12:32:26.017Z,19.00
2019-02-28T12:35:03.197Z,19.10
2019-02-28T12:37:37.239Z,19.20
2019-02-28T12:40:13.425Z,19.40
2019-02-28T12:42:50.838Z,19.50
2019-02-28T12:45:35.234Z,19.70
2019-02-28T12:48:08.864Z,19.80
2019-02-28T12:50:46.132Z,19.50
2019-02-28T12:53:25.321Z,19.50
2019-02-28T12:56:03.076Z,19.40
2019-02-28T12:58:39.175Z,19.50
2019-02-28T13:01:09.786Z,19.70
2019-02-28T13:03:47.274Z,20.00
2019-02-28T13:09:16.937Z,20.90
2019-02-28T13:11:57.076Z,21.20
2019-02-28T13:14:40.710Z,21.00
2019-02-28T13:20:32.249Z,20.20
2019-02-28T13:23:12.282Z,20.00
2019-02-28T13:26:00.001Z,20.30
2019-02-28T13:28:46.934Z,20.70
2019-02-28T13:31:27.149Z,21.00
2019-02-28T15:14:15.720Z,18.90
2019-02-28T16:09:54.042Z,9.40
2019-02-28T16:12:38.398Z,8.90
2019-02-28T16:18:12.822Z,8.00
2019-02-28T16:20:56.289Z,7.70
2019-02-28T16:23:32.856Z,7.40
2019-02-28T16:26:18.245Z,7.20
2019-02-28T16:31:47.784Z,6.80
2019-02-28T16:37:28.931Z,6.40
2019-02-28T16:48:53.990Z,5.90
2019-02-28T16:51:30.186Z,5.70
2019-02-28T16:54:01.080Z,5.60
2019-02-28T16:56:38.745Z,5.50
2019-02-28T16:59:16.508Z,5.40
2019-02-28T17:02:08.419Z,5.30
2019-02-28T17:04:51.520Z,5.20
2019-02-28T17:07:24.750Z,5.10
2019-02-28T17:12:53.323Z,4.90
2019-02-28T17:15:30.743Z,4.80
2019-02-28T17:18:13.020Z,4.80
2019-02-28T17:20:50.823Z,4.70
2019-02-28T17:23:42.547Z,4.60
2019-02-28T17:26:14.235Z,4.50
2019-02-28T17:31:50.509Z,4.40
2019-02-28T17:41:44.163Z,4.20
2019-02-28T17:44:37.473Z,4.10
2019-02-28T17:54:05.916Z,3.90
2019-02-28T17:57:17.651Z,3.90
2019-02-28T18:00:30.895Z,3.80
2019-02-28T18:03:26.571Z,3.80
2019-02-28T18:06:35.122Z,3.70
2019-02-28T18:09:17.531Z,3.70
2019-02-28T18:12:40.600Z,3.70
2019-02-28T18:18:45.704Z,3.60
2019-02-28T18:24:42.890Z,3.60
2019-02-28T18:27:37.630Z,3.50
2019-02-28T18:30:36.540Z,3.50
2019-02-28T18:33:19.442Z,3.40
2019-02-28T18:38:55.341Z,3.40
2019-02-28T18:44:31.112Z,3.30
2019-02-28T18:47:13.693Z,3.30
2019-02-28T18:49:57.046Z,3.30
2019-02-28T20:53:58.976Z,2.10
2019-02-28T21:14:17.299Z,2.20
2019-02-28T21:48:55.530Z,2.30
2019-02-28T22:34:46.164Z,1.60
2019-02-28T22:37:31.937Z,1.50
2019-02-28T22:40:15.662Z,1.50
2019-02-28T22:43:07.865Z,1.50
2019-02-28T22:45:42.304Z,1.50
2019-02-28T23:16:10.182Z,1.10
2019-02-28T23:19:10.387Z,1.10
2019-02-28T23:47:10.153Z,0.80
